Time;durP1;ratioP1;P1;durP2;ratioP2;P2;SDS_P1;SDS_P2;PMS_P1;PMS_P2;Temp;Humidity;BMP_temperature;BMP_pressure;BME280_temperature;BME280_humidity;BME280_pressure;Samples;Min_cycle;Max_cycle;Signal;HPM_P1;HPM_P2
2022/02/20 00:00:10;;;;;;;115.47;57.95;;;;;;;;;;6314391;28;21582;-67
2022/02/20 00:03:12;;;;;;;111.90;56.53;;;;;;;;;;6313857;28;20805;-68
2022/02/20 00:06:13;;;;;;;110.80;56.95;;;;;;;;;;6311852;28;20110;-67
2022/02/20 00:09:15;;;;;;;113.78;57.85;;;;;;;;;;6308395;28;20132;-67
2022/02/20 00:12:18;;;;;;;123.97;59.42;;;;;;;;;;6307813;28;20137;-67
2022/02/20 00:15:19;;;;;;;111.40;56.30;;;;;;;;;;6307582;28;20082;-67
2022/02/20 00:18:21;;;;;;;110.97;55.20;;;;;;;;;;6307162;28;20131;-68
2022/02/20 00:21:22;;;;;;;109.72;55.97;;;;;;;;;;6309191;28;20036;-68
2022/02/20 00:24:24;;;;;;;117.65;58.20;;;;;;;;;;6316531;28;20171;-67
2022/02/20 00:27:27;;;;;;;116.18;58.13;;;;;;;;;;6320377;28;20040;-67
2022/02/20 00:30:29;;;;;;;192.70;99.60;;;;;;;;;;6315060;28;20121;-67
2022/02/20 00:33:31;;;;;;;176.13;93.13;;;;;;;;;;6305598;28;20504;-67
2022/02/20 00:36:32;;;;;;;151.68;77.05;;;;;;;;;;6308297;28;20070;-67
2022/02/20 00:39:34;;;;;;;165.50;83.30;;;;;;;;;;6311990;28;20044;-67
2022/02/20 00:42:37;;;;;;;187.73;99.90;;;;;;;;;;6312491;28;20182;-68
2022/02/20 00:45:39;;;;;;;171.90;88.45;;;;;;;;;;6309661;28;20514;-67
2022/02/20 00:48:40;;;;;;;154.55;82.43;;;;;;;;;;6306949;28;20559;-66
2022/02/20 00:51:42;;;;;;;129.55;64.15;;;;;;;;;;6306570;28;20564;-66
2022/02/20 00:54:44;;;;;;;118.45;57.75;;;;;;;;;;6306929;28;20182;-66
2022/02/20 00:57:47;;;;;;;117.70;57.80;;;;;;;;;;6300623;28;20087;-66
2022/02/20 01:00:48;;;;;;;132.27;61.65;;;;;;;;;;6308134;28;20126;-66
2022/02/20 01:03:50;;;;;;;115.63;57.55;;;;;;;;;;6312132;28;20138;-66
2022/02/20 01:06:51;;;;;;;117.68;57.17;;;;;;;;;;6310540;28;20131;-66
2022/02/20 01:09:53;;;;;;;114.75;58.53;;;;;;;;;;6314870;28;20086;-66
2022/02/20 01:12:56;;;;;;;121.82;59.58;;;;;;;;;;6312266;28;20140;-66
2022/02/20 01:15:58;;;;;;;118.50;57.23;;;;;;;;;;6305399;28;20098;-66
2022/02/20 01:19:00;;;;;;;117.95;57.85;;;;;;;;;;6306496;28;20510;-66
2022/02/20 01:22:02;;;;;;;116.47;57.47;;;;;;;;;;6305853;27;20428;-66
2022/02/20 01:25:04;;;;;;;115.72;59.17;;;;;;;;;;6308368;28;20044;-66
2022/02/20 01:28:07;;;;;;;113.28;57.67;;;;;;;;;;6304884;28;20564;-66
2022/02/20 01:31:08;;;;;;;113.53;57.35;;;;;;;;;;6303071;28;20198;-66
2022/02/20 01:34:10;;;;;;;120.13;58.42;;;;;;;;;;6302046;28;20177;-66
2022/02/20 01:37:11;;;;;;;118.55;58.10;;;;;;;;;;6315041;28;20070;-66
2022/02/20 01:40:13;;;;;;;115.07;58.50;;;;;;;;;;6314842;28;20410;-66
2022/02/20 01:43:16;;;;;;;112.95;57.25;;;;;;;;;;6309150;28;20127;-66
2022/02/20 01:46:18;;;;;;;120.95;59.03;;;;;;;;;;6310496;28;20044;-66
2022/02/20 01:49:20;;;;;;;119.70;58.13;;;;;;;;;;6307171;28;20060;-66
2022/02/20 01:52:22;;;;;;;117.07;57.58;;;;;;;;;;6304922;28;20054;-66
2022/02/20 01:55:24;;;;;;;126.80;60.70;;;;;;;;;;6306217;28;20051;-66
2022/02/20 01:58:27;;;;;;;121.60;59.47;;;;;;;;;;6304382;28;20048;-66
2022/02/20 02:01:28;;;;;;;113.45;57.45;;;;;;;;;;6303141;28;20118;-66
2022/02/20 02:04:30;;;;;;;122.68;59.38;;;;;;;;;;6300013;28;20210;-66
2022/02/20 02:07:32;;;;;;;126.75;60.17;;;;;;;;;;6298937;28;20408;-66
2022/02/20 02:10:33;;;;;;;115.38;57.42;;;;;;;;;;6298690;28;20125;-66
2022/02/20 02:13:38;;;;;;;121.60;57.70;;;;;;;;;;6302282;28;20094;-66
2022/02/20 02:16:39;;;;;;;117.30;58.33;;;;;;;;;;6302152;28;20173;-66
2022/02/20 02:19:41;;;;;;;112.55;57.95;;;;;;;;;;6306842;28;20129;-66
2022/02/20 02:22:44;;;;;;;122.32;60.60;;;;;;;;;;6309190;28;20131;-66
2022/02/20 02:25:46;;;;;;;119.30;57.92;;;;;;;;;;6310457;28;20056;-66
2022/02/20 02:28:48;;;;;;;118.13;58.08;;;;;;;;;;6310521;28;20189;-66
2022/02/20 02:31:49;;;;;;;122.38;58.30;;;;;;;;;;6310826;28;20113;-66
2022/02/20 02:34:51;;;;;;;119.65;59.13;;;;;;;;;;6309117;28;20072;-65
2022/02/20 02:37:54;;;;;;;117.90;57.30;;;;;;;;;;6310250;28;20048;-66
2022/02/20 02:40:57;;;;;;;120.80;58.50;;;;;;;;;;6309764;28;20125;-67
2022/02/20 02:43:58;;;;;;;120.78;57.60;;;;;;;;;;6309260;28;20135;-65
2022/02/20 02:47:00;;;;;;;121.35;55.83;;;;;;;;;;6310503;28;20131;-66
2022/02/20 02:50:01;;;;;;;111.57;54.70;;;;;;;;;;6303964;28;20068;-66
2022/02/20 02:53:05;;;;;;;121.75;58.25;;;;;;;;;;6305283;28;20117;-65
2022/02/20 02:56:07;;;;;;;122.65;58.67;;;;;;;;;;6306118;28;20048;-65
2022/02/20 02:59:08;;;;;;;120.90;56.72;;;;;;;;;;6306673;28;20542;-67
2022/02/20 03:02:10;;;;;;;118.13;56.20;;;;;;;;;;6302127;28;20561;-66
2022/02/20 03:05:11;;;;;;;120.88;57.65;;;;;;;;;;6308063;28;20476;-66
2022/02/20 03:08:14;;;;;;;114.55;54.60;;;;;;;;;;6306672;28;20632;-66
2022/02/20 03:11:16;;;;;;;119.65;54.60;;;;;;;;;;6305371;28;20071;-67
2022/02/20 03:14:17;;;;;;;116.10;56.97;;;;;;;;;;6307753;28;20525;-66
2022/02/20 03:17:19;;;;;;;108.82;53.80;;;;;;;;;;6300493;28;20521;-64
2022/02/20 03:20:21;;;;;;;114.53;55.50;;;;;;;;;;6300946;28;20055;-65
2022/02/20 03:23:24;;;;;;;115.90;55.03;;;;;;;;;;6308559;28;20080;-64
2022/02/20 03:26:26;;;;;;;110.20;54.72;;;;;;;;;;6305963;28;20121;-66
2022/02/20 03:29:27;;;;;;;109.68;54.78;;;;;;;;;;6304733;28;20068;-66
2022/02/20 03:32:29;;;;;;;118.50;56.25;;;;;;;;;;6305824;28;20132;-67
2022/02/20 03:35:30;;;;;;;107.20;53.67;;;;;;;;;;6304579;28;20186;-66
2022/02/20 03:38:33;;;;;;;117.10;54.80;;;;;;;;;;6305340;28;20554;-67
2022/02/20 03:41:35;;;;;;;113.80;54.72;;;;;;;;;;6302191;28;20121;-68
2022/02/20 03:44:36;;;;;;;113.00;54.95;;;;;;;;;;6303280;28;20186;-67
2022/02/20 03:47:38;;;;;;;111.80;53.95;;;;;;;;;;6304073;28;20176;-68
2022/02/20 03:50:41;;;;;;;118.22;56.40;;;;;;;;;;6305224;28;20177;-67
2022/02/20 03:53:44;;;;;;;111.60;54.92;;;;;;;;;;6304724;28;20048;-67
2022/02/20 03:56:45;;;;;;;109.68;54.35;;;;;;;;;;6314487;28;20086;-69
2022/02/20 03:59:47;;;;;;;117.38;54.33;;;;;;;;;;6302901;28;20190;-67
2022/02/20 04:02:48;;;;;;;122.07;55.42;;;;;;;;;;6306112;28;20127;-67
2022/02/20 04:05:50;;;;;;;119.60;56.55;;;;;;;;;;6305312;28;20054;-67
2022/02/20 04:08:54;;;;;;;122.07;54.85;;;;;;;;;;6307713;28;20056;-67
2022/02/20 04:11:55;;;;;;;124.22;55.65;;;;;;;;;;6307439;28;20052;-67
2022/02/20 04:14:57;;;;;;;117.55;51.85;;;;;;;;;;6306885;28;20413;-66
2022/02/20 04:17:59;;;;;;;120.63;52.95;;;;;;;;;;6302263;28;20068;-67
2022/02/20 04:21:00;;;;;;;123.50;53.88;;;;;;;;;;6302220;28;20135;-66
2022/02/20 04:24:04;;;;;;;131.30;55.70;;;;;;;;;;6308917;28;20078;-66
2022/02/20 04:27:05;;;;;;;124.70;54.97;;;;;;;;;;6307213;28;20126;-66
2022/02/20 04:30:08;;;;;;;118.78;52.35;;;;;;;;;;6303338;28;20496;-66
2022/02/20 04:33:10;;;;;;;112.47;49.08;;;;;;;;;;6317536;28;20561;-66
2022/02/20 04:36:12;;;;;;;111.53;47.58;;;;;;;;;;6313516;28;20055;-66
2022/02/20 04:39:15;;;;;;;104.63;46.25;;;;;;;;;;6311630;28;20186;-66
2022/02/20 04:42:16;;;;;;;108.75;46.35;;;;;;;;;;6304623;28;20055;-66
2022/02/20 04:45:18;;;;;;;107.40;46.08;;;;;;;;;;6306336;28;20072;-67
2022/02/20 04:48:20;;;;;;;109.13;48.30;;;;;;;;;;6306116;28;20475;-64
2022/02/20 04:51:21;;;;;;;103.07;45.83;;;;;;;;;;6307028;28;20083;-68
2022/02/20 04:54:24;;;;;;;104.47;45.80;;;;;;;;;;6305639;28;20492;-67
2022/02/20 04:57:26;;;;;;;108.60;47.85;;;;;;;;;;6309958;28;20097;-68
2022/02/20 05:00:27;;;;;;;111.43;48.00;;;;;;;;;;6304792;28;20072;-68
2022/02/20 05:03:29;;;;;;;110.93;46.67;;;;;;;;;;6311062;28;20102;-68
2022/02/20 05:06:30;;;;;;;108.70;46.97;;;;;;;;;;6316610;28;20079;-68
2022/02/20 05:09:33;;;;;;;114.50;47.65;;;;;;;;;;6316902;28;20140;-67
2022/02/20 05:12:35;;;;;;;109.43;46.80;;;;;;;;;;6311514;28;20400;-67
2022/02/20 05:15:36;;;;;;;117.93;47.60;;;;;;;;;;6311587;28;20048;-68
2022/02/20 05:18:38;;;;;;;108.72;43.88;;;;;;;;;;6312135;28;20174;-68
2022/02/20 05:21:39;;;;;;;105.38;45.65;;;;;;;;;;6309990;28;20131;-67
2022/02/20 05:24:44;;;;;;;102.68;44.67;;;;;;;;;;6309120;28;20185;-67
2022/02/20 05:27:45;;;;;;;;;;;;;;;;;;6302553;28;20049;-68
2022/02/20 05:30:47;;;;;;;113.18;42.80;;;;;;;;;;6306358;28;19997;-67
2022/02/20 05:33:48;;;;;;;104.28;42.70;;;;;;;;;;6302143;28;20143;-67
2022/02/20 05:36:50;;;;;;;119.68;44.38;;;;;;;;;;6307566;28;20178;-67
2022/02/20 05:39:53;;;;;;;115.38;45.28;;;;;;;;;;6304824;28;20182;-68
2022/02/20 05:42:57;;;;;;;124.10;45.10;;;;;;;;;;6310560;28;20495;-66
2022/02/20 05:45:58;;;;;;;;;;;;;;;;;;6311848;28;20541;-68
2022/02/20 05:49:04;;;;;;;106.50;41.35;;;;;;;;;;6312463;28;20009;-67
2022/02/20 05:52:05;;;;;;;115.95;44.75;;;;;;;;;;6307754;28;20049;-67
2022/02/20 05:55:10;;;;;;;127.88;45.83;;;;;;;;;;6307413;28;20392;-68
2022/02/20 05:58:11;;;;;;;112.28;44.20;;;;;;;;;;6308000;28;20689;-68
2022/02/20 06:01:13;;;;;;;111.95;44.75;;;;;;;;;;6306866;28;20245;-68
2022/02/20 06:04:14;;;;;;;108.45;46.25;;;;;;;;;;6304492;28;20076;-67
2022/02/20 06:07:16;;;;;;;115.45;45.70;;;;;;;;;;6303854;28;20048;-68
2022/02/20 06:10:19;;;;;;;112.47;43.80;;;;;;;;;;6305922;28;20131;-68
2022/02/20 06:13:20;;;;;;;112.15;44.95;;;;;;;;;;6302354;28;20474;-67
2022/02/20 06:16:22;;;;;;;106.88;44.58;;;;;;;;;;6303487;28;20048;-68
2022/02/20 06:19:24;;;;;;;113.35;43.75;;;;;;;;;;6306249;28;20057;-68
2022/02/20 06:22:25;;;;;;;98.82;40.65;;;;;;;;;;6305904;28;20126;-68
2022/02/20 06:25:29;;;;;;;96.97;40.08;;;;;;;;;;6309566;28;20143;-67
2022/02/20 06:28:31;;;;;;;92.50;38.25;;;;;;;;;;6308612;28;20043;-65
2022/02/20 06:31:32;;;;;;;97.53;39.35;;;;;;;;;;6309720;28;20116;-66
2022/02/20 06:34:34;;;;;;;97.28;39.55;;;;;;;;;;6306264;28;20042;-67
2022/02/20 06:37:36;;;;;;;98.68;40.67;;;;;;;;;;6309940;28;20163;-65
2022/02/20 06:40:39;;;;;;;92.85;38.00;;;;;;;;;;6301692;28;20134;-68
2022/02/20 06:43:40;;;;;;;97.53;40.00;;;;;;;;;;6302275;28;20186;-68
2022/02/20 06:46:43;;;;;;;98.93;38.47;;;;;;;;;;6298799;28;20056;-68
2022/02/20 06:49:44;;;;;;;83.20;35.72;;;;;;;;;;6303272;28;20432;-65
2022/02/20 06:52:46;;;;;;;87.60;36.08;;;;;;;;;;6308350;28;20704;-64
2022/02/20 06:55:49;;;;;;;90.82;37.20;;;;;;;;;;6307983;28;20048;-66
2022/02/20 06:58:51;;;;;;;90.45;35.13;;;;;;;;;;6302402;28;20159;-65
2022/02/20 07:01:52;;;;;;;93.55;36.88;;;;;;;;;;6305024;28;20524;-65
2022/02/20 07:04:54;;;;;;;83.32;35.30;;;;;;;;;;6310353;28;20163;-65
2022/02/20 07:07:57;;;;;;;87.35;35.17;;;;;;;;;;6309170;28;20071;-65
2022/02/20 07:11:00;;;;;;;85.40;35.67;;;;;;;;;;6306115;28;20060;-65
2022/02/20 07:14:02;;;;;;;82.70;34.65;;;;;;;;;;6305957;28;20082;-66
2022/02/20 07:17:04;;;;;;;78.88;34.42;;;;;;;;;;6303879;28;20196;-67
2022/02/20 07:20:07;;;;;;;85.95;36.33;;;;;;;;;;6299899;28;20113;-66
2022/02/20 07:23:08;;;;;;;83.10;36.08;;;;;;;;;;6300782;28;20443;-66
2022/02/20 07:26:11;;;;;;;76.82;35.42;;;;;;;;;;6307503;28;20131;-67
2022/02/20 07:29:13;;;;;;;78.72;36.00;;;;;;;;;;6306020;28;20129;-66
2022/02/20 07:32:14;;;;;;;80.90;35.17;;;;;;;;;;6303979;28;20128;-66
2022/02/20 07:35:17;;;;;;;79.43;36.30;;;;;;;;;;6305057;28;20189;-67
2022/02/20 07:38:18;;;;;;;76.45;33.30;;;;;;;;;;6298064;28;20063;-67
2022/02/20 07:41:21;;;;;;;73.72;32.67;;;;;;;;;;6305273;28;20137;-65
2022/02/20 07:44:23;;;;;;;74.90;33.58;;;;;;;;;;6315838;28;20500;-67
2022/02/20 07:47:24;;;;;;;71.43;33.35;;;;;;;;;;6310984;28;20101;-65
2022/02/20 07:50:28;;;;;;;72.63;33.10;;;;;;;;;;6309380;28;20100;-66
2022/02/20 07:53:29;;;;;;;66.25;30.23;;;;;;;;;;6312771;28;20122;-66
2022/02/20 07:56:32;;;;;;;71.38;33.25;;;;;;;;;;6312327;28;20048;-66
2022/02/20 07:59:34;;;;;;;65.47;31.92;;;;;;;;;;6308256;28;20140;-66
2022/02/20 08:02:35;;;;;;;66.45;32.05;;;;;;;;;;6311262;28;20133;-66
2022/02/20 08:05:37;;;;;;;63.80;30.75;;;;;;;;;;6307139;28;20080;-64
2022/02/20 08:08:39;;;;;;;62.63;31.05;;;;;;;;;;6310728;28;20676;-65
2022/02/20 08:11:42;;;;;;;60.40;29.67;;;;;;;;;;6309160;28;20149;-66
2022/02/20 08:14:43;;;;;;;60.37;29.87;;;;;;;;;;6307042;28;20072;-63
2022/02/20 08:17:46;;;;;;;61.28;29.80;;;;;;;;;;6310973;28;20670;-64
2022/02/20 08:20:48;;;;;;;54.95;28.73;;;;;;;;;;6308807;28;20080;-67
2022/02/20 08:23:50;;;;;;;58.10;30.85;;;;;;;;;;6307004;28;20301;-66
2022/02/20 08:26:53;;;;;;;60.92;30.35;;;;;;;;;;6312676;28;20057;-66
2022/02/20 08:29:55;;;;;;;60.38;30.27;;;;;;;;;;6307832;28;20064;-66
2022/02/20 08:32:56;;;;;;;67.10;32.45;;;;;;;;;;6309418;28;20407;-63
2022/02/20 08:35:58;;;;;;;54.63;30.63;;;;;;;;;;6311277;28;20548;-64
2022/02/20 08:39:00;;;;;;;58.10;30.42;;;;;;;;;;6309026;28;20097;-66
2022/02/20 08:42:04;;;;;;;58.80;29.60;;;;;;;;;;6308821;28;20547;-64
2022/02/20 08:45:06;;;;;;;;;;;;;;;;;;6309720;28;20713;-64
2022/02/20 08:48:07;;;;;;;55.20;28.80;;;;;;;;;;6307928;28;20011;-64
2022/02/20 08:51:09;;;;;;;55.88;31.88;;;;;;;;;;6307193;28;20097;-66
2022/02/20 08:54:11;;;;;;;51.22;28.45;;;;;;;;;;6307514;28;20056;-64
2022/02/20 08:57:14;;;;;;;51.88;27.35;;;;;;;;;;6308946;28;20071;-65
2022/02/20 09:00:16;;;;;;;51.70;29.20;;;;;;;;;;6303212;28;20386;-65
2022/02/20 09:03:17;;;;;;;51.10;28.70;;;;;;;;;;6305681;28;20056;-63
2022/02/20 09:06:19;;;;;;;44.50;27.17;;;;;;;;;;6312774;28;20121;-65
2022/02/20 09:09:21;;;;;;;40.42;24.77;;;;;;;;;;6313163;28;20049;-64
2022/02/20 09:12:25;;;;;;;39.72;24.15;;;;;;;;;;6310320;28;20059;-64
2022/02/20 09:15:27;;;;;;;38.22;23.77;;;;;;;;;;6308748;28;20131;-64
2022/02/20 09:18:28;;;;;;;36.63;23.35;;;;;;;;;;6306925;28;20483;-64
2022/02/20 09:21:30;;;;;;;32.90;21.10;;;;;;;;;;6309563;28;20051;-66
2022/02/20 09:24:32;;;;;;;35.25;22.52;;;;;;;;;;6304943;28;20515;-64
2022/02/20 09:27:35;;;;;;;35.63;22.67;;;;;;;;;;6306120;28;20114;-63
2022/02/20 09:30:36;;;;;;;35.10;22.48;;;;;;;;;;6304498;28;20125;-65
2022/02/20 09:33:39;;;;;;;31.17;22.35;;;;;;;;;;6303507;28;20060;-64
2022/02/20 09:36:41;;;;;;;31.38;21.35;;;;;;;;;;6306046;28;20048;-64
2022/02/20 09:39:42;;;;;;;32.60;22.60;;;;;;;;;;6302437;28;20432;-64
2022/02/20 09:42:45;;;;;;;28.15;19.40;;;;;;;;;;6304539;28;20083;-64
2022/02/20 09:45:48;;;;;;;27.13;19.33;;;;;;;;;;6306323;28;20086;-64
2022/02/20 09:48:52;;;;;;;27.38;18.85;;;;;;;;;;6315839;28;20083;-63
2022/02/20 09:51:54;;;;;;;27.88;18.02;;;;;;;;;;6306137;28;20094;-64
2022/02/20 09:54:56;;;;;;;27.13;18.90;;;;;;;;;;6308208;28;20047;-64
2022/02/20 09:57:59;;;;;;;25.77;17.20;;;;;;;;;;6303955;28;20130;-64
2022/02/20 10:01:05;;;;;;;27.97;17.90;;;;;;;;;;6305142;28;20109;-64
2022/02/20 10:04:12;;;;;;;22.67;17.02;;;;;;;;;;6303934;28;20056;-65
2022/02/20 10:07:32;;;;;;;24.50;16.65;;;;;;;;;;6299922;28;20052;-64
2022/02/20 10:10:34;;;;;;;22.38;16.73;;;;;;;;;;6302522;28;20036;-62
2022/02/20 10:13:37;;;;;;;23.67;16.80;;;;;;;;;;6303043;28;20131;-64
2022/02/20 10:16:39;;;;;;;22.77;16.30;;;;;;;;;;6302063;28;20561;-63
2022/02/20 10:19:54;;;;;;;22.33;16.08;;;;;;;;;;6302991;28;20170;-63
2022/02/20 10:22:55;;;;;;;20.15;14.93;;;;;;;;;;6302239;28;20105;-63
2022/02/20 10:26:11;;;;;;;21.30;15.23;;;;;;;;;;6305073;28;20135;-64
2022/02/20 10:29:18;;;;;;;19.70;13.98;;;;;;;;;;6300146;28;20817;-64
2022/02/20 10:32:21;;;;;;;18.38;12.88;;;;;;;;;;6307364;28;20405;-63
2022/02/20 10:35:23;;;;;;;20.88;13.20;;;;;;;;;;6310565;28;20487;-65
2022/02/20 10:38:26;;;;;;;19.98;13.25;;;;;;;;;;6308249;28;20044;-65
2022/02/20 10:41:30;;;;;;;18.45;12.30;;;;;;;;;;6305324;28;20044;-64
2022/02/20 10:44:48;;;;;;;16.40;11.77;;;;;;;;;;6301477;28;20045;-62
2022/02/20 10:47:50;;;;;;;17.27;13.23;;;;;;;;;;6301794;28;20134;-65
2022/02/20 10:50:58;;;;;;;19.15;15.23;;;;;;;;;;6301071;28;20083;-64
2022/02/20 10:54:03;;;;;;;21.70;15.88;;;;;;;;;;6305146;28;20041;-64
2022/02/20 10:57:05;;;;;;;23.75;16.58;;;;;;;;;;6303452;28;20064;-63
2022/02/20 11:00:12;;;;;;;25.20;18.08;;;;;;;;;;6305469;28;20120;-63
2022/02/20 11:03:14;;;;;;;27.52;19.50;;;;;;;;;;6300963;28;20206;-63
2022/02/20 11:06:17;;;;;;;28.52;18.83;;;;;;;;;;6310200;28;20067;-64
2022/02/20 11:09:19;;;;;;;24.25;17.77;;;;;;;;;;6308668;28;20195;-65
2022/02/20 11:12:22;;;;;;;24.48;16.77;;;;;;;;;;6304126;28;20121;-65
2022/02/20 11:15:25;;;;;;;24.60;16.43;;;;;;;;;;6304664;28;20055;-63
2022/02/20 11:18:26;;;;;;;;;;;;;;;;;;6303412;28;20052;-65
2022/02/20 11:21:28;;;;;;;26.27;18.88;;;;;;;;;;6300906;28;20003;-65
2022/02/20 11:24:33;;;;;;;27.02;19.05;;;;;;;;;;6297602;28;20059;-66
2022/02/20 11:27:35;;;;;;;26.50;19.05;;;;;;;;;;6300300;28;20082;-65
2022/02/20 11:30:38;;;;;;;24.85;18.63;;;;;;;;;;6306366;28;20393;-63
2022/02/20 11:33:41;;;;;;;24.42;18.77;;;;;;;;;;6303758;28;20097;-63
2022/02/20 11:36:51;;;;;;;22.63;16.55;;;;;;;;;;6306146;28;20068;-65
2022/02/20 11:39:59;;;;;;;24.00;17.35;;;;;;;;;;6301304;28;20079;-65
2022/02/20 11:43:10;;;;;;;25.77;17.60;;;;;;;;;;6305254;28;20128;-64
2022/02/20 11:46:15;;;;;;;20.65;15.85;;;;;;;;;;6307787;28;20048;-63
2022/02/20 11:49:30;;;;;;;24.58;16.50;;;;;;;;;;6305666;28;20053;-65
2022/02/20 11:52:45;;;;;;;23.65;15.93;;;;;;;;;;6309310;28;20178;-65
2022/02/20 11:55:46;;;;;;;20.55;15.38;;;;;;;;;;6304903;28;20047;-64
2022/02/20 11:58:48;;;;;;;27.77;15.65;;;;;;;;;;6302665;28;20121;-68
2022/02/20 12:02:18;;;;;;;24.08;16.58;;;;;;;;;;6303329;28;20048;-65
2022/02/20 12:05:20;;;;;;;26.13;16.23;;;;;;;;;;6261165;28;20478;-65
2022/02/20 12:08:32;;;;;;;22.17;16.98;;;;;;;;;;6312215;28;20176;-65
2022/02/20 12:11:44;;;;;;;25.65;17.38;;;;;;;;;;6308306;28;20089;-68
2022/02/20 12:14:46;;;;;;;23.60;16.80;;;;;;;;;;6302797;28;20053;-67
2022/02/20 12:18:00;;;;;;;21.70;16.27;;;;;;;;;;6303651;28;20143;-70
2022/02/20 12:21:15;;;;;;;25.23;17.98;;;;;;;;;;6302742;28;20812;-69
2022/02/20 12:24:20;;;;;;;24.65;17.33;;;;;;;;;;6302785;28;20053;-67
2022/02/20 12:27:24;;;;;;;26.15;18.75;;;;;;;;;;6306691;28;20135;-67
2022/02/20 12:30:27;;;;;;;25.92;17.90;;;;;;;;;;6309905;28;20048;-65
2022/02/20 12:33:30;;;;;;;23.17;16.73;;;;;;;;;;6308618;28;20048;-67
2022/02/20 12:36:32;;;;;;;26.70;18.95;;;;;;;;;;6304889;28;20082;-66
2022/02/20 12:39:34;;;;;;;26.27;18.05;;;;;;;;;;6306604;28;20083;-67
2022/02/20 12:42:41;;;;;;;29.27;19.35;;;;;;;;;;6311575;28;20124;-65
2022/02/20 12:45:45;;;;;;;30.10;19.42;;;;;;;;;;6314634;28;20456;-65
2022/02/20 12:48:48;;;;;;;28.65;18.95;;;;;;;;;;6309720;28;20051;-65
2022/02/20 12:51:49;;;;;;;28.75;18.65;;;;;;;;;;6307941;28;20060;-65
2022/02/20 12:54:57;;;;;;;30.33;20.92;;;;;;;;;;6304514;28;20048;-65
2022/02/20 12:58:01;;;;;;;33.13;20.30;;;;;;;;;;6306632;28;20065;-63
2022/02/20 13:01:03;;;;;;;39.75;19.60;;;;;;;;;;6307301;28;20447;-64
2022/02/20 13:04:06;;;;;;;29.90;19.60;;;;;;;;;;6312805;28;20181;-63
2022/02/20 13:07:07;;;;;;;32.50;21.42;;;;;;;;;;6317735;27;20127;-62
2022/02/20 13:10:09;;;;;;;32.05;22.25;;;;;;;;;;6311534;28;20097;-63
2022/02/20 13:13:13;;;;;;;37.58;23.08;;;;;;;;;;6305859;28;20052;-64
2022/02/20 13:16:17;;;;;;;;;;;;;;;;;;6315173;28;20068;-63
2022/02/20 13:19:32;;;;;;;34.72;21.60;;;;;;;;;;6310218;28;19920;-63
2022/02/20 13:22:34;;;;;;;40.72;24.95;;;;;;;;;;6310168;28;20082;-63
2022/02/20 13:25:36;;;;;;;38.65;23.73;;;;;;;;;;6313240;28;20139;-65
2022/02/20 13:28:39;;;;;;;38.95;24.90;;;;;;;;;;6308080;28;20151;-63
2022/02/20 13:31:44;;;;;;;;;;;;;;;;;;6307094;28;20052;-63
2022/02/20 13:34:56;;;;;;;34.15;21.95;;;;;;;;;;6308315;28;19993;-64
2022/02/20 13:37:58;;;;;;;38.35;23.90;;;;;;;;;;6305671;28;20131;-64
2022/02/20 13:41:00;;;;;;;33.83;22.98;;;;;;;;;;6305013;28;20127;-63
2022/02/20 13:44:02;;;;;;;37.42;22.52;;;;;;;;;;6300845;28;20157;-65
2022/02/20 13:47:05;;;;;;;31.77;20.17;;;;;;;;;;6304025;28;20080;-64
2022/02/20 13:50:19;;;;;;;34.35;21.17;;;;;;;;;;6309007;28;20058;-63
2022/02/20 13:53:21;;;;;;;33.90;20.63;;;;;;;;;;6313575;28;20040;-66
2022/02/20 13:56:38;;;;;;;29.75;18.67;;;;;;;;;;6312396;28;20135;-63
2022/02/20 13:59:46;;;;;;;29.73;18.95;;;;;;;;;;6306019;28;20127;-67
2022/02/20 14:02:47;;;;;;;31.92;19.55;;;;;;;;;;6307664;28;20058;-65
2022/02/20 14:05:53;;;;;;;29.83;18.77;;;;;;;;;;6305330;28;20091;-65
2022/02/20 14:08:55;;;;;;;28.52;18.48;;;;;;;;;;6307745;28;20152;-64
2022/02/20 14:12:10;;;;;;;26.92;17.40;;;;;;;;;;6304907;28;20052;-65
2022/02/20 14:15:14;;;;;;;26.48;17.30;;;;;;;;;;6303022;28;20112;-65
2022/02/20 14:18:16;;;;;;;29.10;18.50;;;;;;;;;;6305518;28;20051;-65
2022/02/20 14:21:24;;;;;;;27.85;18.77;;;;;;;;;;6301168;28;20138;-65
2022/02/20 14:24:26;;;;;;;28.00;19.00;;;;;;;;;;6307947;28;20048;-65
2022/02/20 14:27:34;;;;;;;25.52;17.17;;;;;;;;;;6313417;28;20494;-64
2022/02/20 14:30:39;;;;;;;29.55;19.08;;;;;;;;;;6314440;28;20048;-63
2022/02/20 14:33:43;;;;;;;27.80;17.33;;;;;;;;;;6311772;28;20218;-64
2022/02/20 14:36:46;;;;;;;23.83;14.77;;;;;;;;;;6309706;28;20051;-64
2022/02/20 14:39:48;;;;;;;21.40;14.70;;;;;;;;;;6305846;28;20048;-64
2022/02/20 14:42:49;;;;;;;25.70;15.13;;;;;;;;;;6308479;28;20113;-66
2022/02/20 14:45:52;;;;;;;20.65;13.38;;;;;;;;;;6306922;28;20223;-65
2022/02/20 14:48:54;;;;;;;22.73;13.68;;;;;;;;;;6304917;28;20044;-65
2022/02/20 14:51:57;;;;;;;23.63;14.45;;;;;;;;;;6307922;28;20126;-65
2022/02/20 14:54:58;;;;;;;25.10;14.73;;;;;;;;;;6303762;28;20174;-65
2022/02/20 14:58:00;;;;;;;26.42;16.00;;;;;;;;;;6305184;28;20044;-66
2022/02/20 15:01:02;;;;;;;22.00;14.50;;;;;;;;;;6309368;28;20102;-64
2022/02/20 15:04:05;;;;;;;26.85;16.55;;;;;;;;;;6311137;28;20516;-65
2022/02/20 15:07:07;;;;;;;24.45;15.75;;;;;;;;;;6309741;28;20197;-65
2022/02/20 15:10:12;;;;;;;23.57;15.50;;;;;;;;;;6310811;28;20447;-65
2022/02/20 15:13:14;;;;;;;24.65;15.13;;;;;;;;;;6304815;28;20052;-65
2022/02/20 15:16:15;;;;;;;22.77;14.50;;;;;;;;;;6302088;28;20184;-63
2022/02/20 15:19:17;;;;;;;23.65;14.65;;;;;;;;;;6303597;28;20107;-63
2022/02/20 15:22:20;;;;;;;25.48;16.33;;;;;;;;;;6302807;28;20549;-63
2022/02/20 15:25:23;;;;;;;27.00;15.53;;;;;;;;;;6305290;28;20052;-65
2022/02/20 15:28:25;;;;;;;23.35;15.27;;;;;;;;;;6301739;28;20061;-65
2022/02/20 15:31:27;;;;;;;25.00;15.20;;;;;;;;;;6306800;28;20530;-65
2022/02/20 15:34:28;;;;;;;21.88;13.35;;;;;;;;;;6306849;28;20064;-65
2022/02/20 15:37:31;;;;;;;21.35;12.98;;;;;;;;;;6307357;28;20078;-65
2022/02/20 15:40:33;;;;;;;22.60;13.53;;;;;;;;;;6304038;28;20185;-65
2022/02/20 15:43:34;;;;;;;22.42;13.68;;;;;;;;;;6307566;28;20153;-65
2022/02/20 15:46:36;;;;;;;22.60;13.32;;;;;;;;;;6306762;28;20125;-65
2022/02/20 15:49:38;;;;;;;21.25;13.32;;;;;;;;;;6305026;28;20129;-65
2022/02/20 15:52:41;;;;;;;22.30;13.73;;;;;;;;;;6305263;28;20182;-63
2022/02/20 15:55:47;;;;;;;20.67;13.63;;;;;;;;;;6303307;28;20146;-66
2022/02/20 15:58:49;;;;;;;19.35;12.60;;;;;;;;;;6304796;28;20445;-65
2022/02/20 16:01:50;;;;;;;20.58;13.52;;;;;;;;;;6305601;28;20138;-63
2022/02/20 16:04:52;;;;;;;20.00;12.75;;;;;;;;;;6308916;28;20662;-65
2022/02/20 16:07:55;;;;;;;19.38;12.52;;;;;;;;;;6316183;28;20048;-64
2022/02/20 16:10:57;;;;;;;18.93;12.60;;;;;;;;;;6312258;28;20254;-65
2022/02/20 16:13:59;;;;;;;22.85;13.38;;;;;;;;;;6311514;28;20044;-66
2022/02/20 16:17:01;;;;;;;17.05;11.52;;;;;;;;;;6303011;28;20543;-65
2022/02/20 16:20:02;;;;;;;18.40;12.13;;;;;;;;;;6304248;28;20637;-64
2022/02/20 16:23:05;;;;;;;20.73;13.18;;;;;;;;;;6309310;28;20532;-62
2022/02/20 16:26:07;;;;;;;58.15;29.55;;;;;;;;;;6310128;28;20360;-65
2022/02/20 16:29:09;;;;;;;18.27;11.50;;;;;;;;;;6309469;28;20078;-64
2022/02/20 16:32:10;;;;;;;18.55;11.75;;;;;;;;;;6308026;28;20049;-64
2022/02/20 16:35:12;;;;;;;21.67;12.45;;;;;;;;;;6305534;28;20182;-64
2022/02/20 16:38:15;;;;;;;53.33;24.88;;;;;;;;;;6305285;28;20134;-64
2022/02/20 16:41:17;;;;;;;22.63;12.87;;;;;;;;;;6302688;28;20044;-63
2022/02/20 16:44:20;;;;;;;17.98;11.98;;;;;;;;;;6307694;28;20048;-65
2022/02/20 16:47:22;;;;;;;18.13;11.38;;;;;;;;;;6311572;28;20059;-65
2022/02/20 16:50:24;;;;;;;17.77;11.68;;;;;;;;;;6306971;28;20139;-65
2022/02/20 16:53:30;;;;;;;20.55;11.93;;;;;;;;;;6305210;28;20174;-64
2022/02/20 16:56:32;;;;;;;18.63;12.10;;;;;;;;;;6303480;28;20048;-65
2022/02/20 16:59:33;;;;;;;17.90;11.40;;;;;;;;;;6305221;28;20174;-64
2022/02/20 17:02:35;;;;;;;20.45;11.70;;;;;;;;;;6306121;28;20128;-65
2022/02/20 17:05:36;;;;;;;19.40;11.15;;;;;;;;;;6307889;28;20076;-65
2022/02/20 17:08:39;;;;;;;18.55;12.10;;;;;;;;;;6308621;28;20105;-67
2022/02/20 17:11:41;;;;;;;17.37;10.43;;;;;;;;;;6302938;28;20559;-67
2022/02/20 17:14:43;;;;;;;17.48;11.50;;;;;;;;;;6300728;28;20052;-66
2022/02/20 17:17:45;;;;;;;15.95;11.15;;;;;;;;;;6305427;28;20071;-65
2022/02/20 17:20:46;;;;;;;18.08;11.63;;;;;;;;;;6310136;28;20078;-64
2022/02/20 17:23:49;;;;;;;17.50;11.68;;;;;;;;;;6307491;28;20055;-64
2022/02/20 17:26:51;;;;;;;21.20;11.73;;;;;;;;;;6309555;28;20056;-64
2022/02/20 17:29:56;;;;;;;18.52;12.38;;;;;;;;;;6305787;28;20189;-65
2022/02/20 17:32:58;;;;;;;22.48;13.70;;;;;;;;;;6301364;28;20113;-65
2022/02/20 17:36:00;;;;;;;18.45;12.40;;;;;;;;;;6306932;28;20072;-65
2022/02/20 17:39:03;;;;;;;20.10;11.82;;;;;;;;;;6302232;28;20080;-65